sensor_id;sensor_type;location;lat;lon;timestamp;P1;durP1;ratioP1;P2;durP2;ratioP2
7332;SDS011;3707;43.618;25.342;2022-07-06T00:02:00;8.90;;;6.18;;
7332;SDS011;3707;43.618;25.342;2022-07-06T00:04:26;12.88;;;6.68;;
7332;SDS011;3707;43.618;25.342;2022-07-06T00:06:55;7.43;;;6.68;;
7332;SDS011;3707;43.618;25.342;2022-07-06T00:09:22;12.07;;;6.78;;
7332;SDS011;3707;43.618;25.342;2022-07-06T00:11:49;10.93;;;6.72;;
7332;SDS011;3707;43.618;25.342;2022-07-06T00:14:16;8.48;;;6.90;;
7332;SDS011;3707;43.618;25.342;2022-07-06T00:16:43;8.52;;;6.97;;
7332;SDS011;3707;43.618;25.342;2022-07-06T00:19:09;7.60;;;6.90;;
7332;SDS011;3707;43.618;25.342;2022-07-06T00:21:36;13.63;;;6.83;;
7332;SDS011;3707;43.618;25.342;2022-07-06T00:24:05;8.35;;;7.50;;
7332;SDS011;3707;43.618;25.342;2022-07-06T00:26:32;12.13;;;7.13;;
7332;SDS011;3707;43.618;25.342;2022-07-06T00:28:58;7.82;;;6.32;;
7332;SDS011;3707;43.618;25.342;2022-07-06T00:31:25;7.25;;;6.55;;
7332;SDS011;3707;43.618;25.342;2022-07-06T00:33:52;6.93;;;6.25;;
7332;SDS011;3707;43.618;25.342;2022-07-06T00:36:19;8.93;;;7.97;;
7332;SDS011;3707;43.618;25.342;2022-07-06T00:38:46;8.65;;;6.80;;
7332;SDS011;3707;43.618;25.342;2022-07-06T00:41:14;8.18;;;6.90;;
7332;SDS011;3707;43.618;25.342;2022-07-06T00:43:50;10.50;;;6.57;;
7332;SDS011;3707;43.618;25.342;2022-07-06T00:46:18;10.10;;;7.13;;
7332;SDS011;3707;43.618;25.342;2022-07-06T00:48:45;7.80;;;7.00;;
7332;SDS011;3707;43.618;25.342;2022-07-06T00:51:12;9.70;;;7.00;;
7332;SDS011;3707;43.618;25.342;2022-07-06T00:53:39;11.23;;;7.07;;
7332;SDS011;3707;43.618;25.342;2022-07-06T00:56:07;7.45;;;6.75;;
7332;SDS011;3707;43.618;25.342;2022-07-06T00:58:37;12.40;;;7.22;;
7332;SDS011;3707;43.618;25.342;2022-07-06T01:01:04;7.75;;;7.00;;
7332;SDS011;3707;43.618;25.342;2022-07-06T01:03:30;7.65;;;6.85;;
7332;SDS011;3707;43.618;25.342;2022-07-06T01:05:58;11.05;;;6.90;;
7332;SDS011;3707;43.618;25.342;2022-07-06T01:08:26;12.18;;;7.47;;
7332;SDS011;3707;43.618;25.342;2022-07-06T01:10:53;8.43;;;7.10;;
7332;SDS011;3707;43.618;25.342;2022-07-06T01:13:19;7.72;;;7.03;;
7332;SDS011;3707;43.618;25.342;2022-07-06T01:15:48;9.13;;;7.43;;
7332;SDS011;3707;43.618;25.342;2022-07-06T01:18:15;8.25;;;7.28;;
7332;SDS011;3707;43.618;25.342;2022-07-06T01:20:43;6.38;;;5.80;;
7332;SDS011;3707;43.618;25.342;2022-07-06T01:23:10;8.05;;;7.15;;
7332;SDS011;3707;43.618;25.342;2022-07-06T01:25:37;8.10;;;7.30;;
7332;SDS011;3707;43.618;25.342;2022-07-06T01:28:04;7.93;;;6.88;;
7332;SDS011;3707;43.618;25.342;2022-07-06T01:30:31;11.75;;;7.60;;
7332;SDS011;3707;43.618;25.342;2022-07-06T01:32:58;8.35;;;7.22;;
7332;SDS011;3707;43.618;25.342;2022-07-06T01:35:25;7.78;;;6.85;;
7332;SDS011;3707;43.618;25.342;2022-07-06T01:37:56;8.98;;;6.40;;
7332;SDS011;3707;43.618;25.342;2022-07-06T01:40:23;7.80;;;7.10;;
7332;SDS011;3707;43.618;25.342;2022-07-06T01:42:50;7.70;;;6.75;;
7332;SDS011;3707;43.618;25.342;2022-07-06T01:45:17;8.00;;;7.20;;
7332;SDS011;3707;43.618;25.342;2022-07-06T01:47:44;7.30;;;6.45;;
7332;SDS011;3707;43.618;25.342;2022-07-06T01:50:10;8.00;;;6.82;;
7332;SDS011;3707;43.618;25.342;2022-07-06T01:52:37;9.52;;;6.88;;
7332;SDS011;3707;43.618;25.342;2022-07-06T01:55:06;8.38;;;7.05;;
7332;SDS011;3707;43.618;25.342;2022-07-06T01:57:33;8.13;;;6.95;;
7332;SDS011;3707;43.618;25.342;2022-07-06T02:00:00;7.53;;;6.82;;
7332;SDS011;3707;43.618;25.342;2022-07-06T02:02:27;9.18;;;7.13;;
7332;SDS011;3707;43.618;25.342;2022-07-06T02:04:54;12.48;;;6.95;;
7332;SDS011;3707;43.618;25.342;2022-07-06T02:07:20;9.27;;;7.03;;
7332;SDS011;3707;43.618;25.342;2022-07-06T02:09:47;8.40;;;6.95;;
7332;SDS011;3707;43.618;25.342;2022-07-06T02:12:15;8.02;;;7.25;;
7332;SDS011;3707;43.618;25.342;2022-07-06T02:14:42;13.82;;;7.25;;
7332;SDS011;3707;43.618;25.342;2022-07-06T02:17:09;7.03;;;6.43;;
7332;SDS011;3707;43.618;25.342;2022-07-06T02:19:36;9.35;;;6.78;;
7332;SDS011;3707;43.618;25.342;2022-07-06T02:22:03;7.72;;;6.93;;
7332;SDS011;3707;43.618;25.342;2022-07-06T02:24:32;7.47;;;6.68;;
7332;SDS011;3707;43.618;25.342;2022-07-06T02:26:59;7.60;;;6.43;;
7332;SDS011;3707;43.618;25.342;2022-07-06T02:29:27;7.82;;;7.05;;
7332;SDS011;3707;43.618;25.342;2022-07-06T02:31:54;9.93;;;7.28;;
7332;SDS011;3707;43.618;25.342;2022-07-06T02:34:21;9.65;;;7.50;;
7332;SDS011;3707;43.618;25.342;2022-07-06T02:36:48;12.25;;;7.40;;
7332;SDS011;3707;43.618;25.342;2022-07-06T02:39:15;8.25;;;7.18;;
7332;SDS011;3707;43.618;25.342;2022-07-06T02:41:42;10.63;;;7.50;;
7332;SDS011;3707;43.618;25.342;2022-07-06T02:44:08;9.95;;;7.10;;
7332;SDS011;3707;43.618;25.342;2022-07-06T02:46:36;8.80;;;7.38;;
7332;SDS011;3707;43.618;25.342;2022-07-06T02:49:03;13.25;;;7.65;;
7332;SDS011;3707;43.618;25.342;2022-07-06T02:51:30;8.63;;;7.28;;
7332;SDS011;3707;43.618;25.342;2022-07-06T02:53:57;8.20;;;7.38;;
7332;SDS011;3707;43.618;25.342;2022-07-06T02:56:24;8.25;;;7.28;;
7332;SDS011;3707;43.618;25.342;2022-07-06T02:58:51;8.15;;;7.30;;
7332;SDS011;3707;43.618;25.342;2022-07-06T03:01:17;12.95;;;7.55;;
7332;SDS011;3707;43.618;25.342;2022-07-06T03:03:46;8.13;;;7.22;;
7332;SDS011;3707;43.618;25.342;2022-07-06T03:06:12;8.55;;;7.65;;
7332;SDS011;3707;43.618;25.342;2022-07-06T03:08:39;8.55;;;7.07;;
7332;SDS011;3707;43.618;25.342;2022-07-06T03:11:06;8.30;;;7.32;;
7332;SDS011;3707;43.618;25.342;2022-07-06T03:13:33;9.30;;;7.82;;
7332;SDS011;3707;43.618;25.342;2022-07-06T03:16:00;10.45;;;8.10;;
7332;SDS011;3707;43.618;25.342;2022-07-06T03:18:27;8.30;;;7.53;;
7332;SDS011;3707;43.618;25.342;2022-07-06T03:20:55;8.50;;;7.32;;
7332;SDS011;3707;43.618;25.342;2022-07-06T03:23:22;9.70;;;7.55;;
7332;SDS011;3707;43.618;25.342;2022-07-06T03:25:50;8.73;;;7.25;;
7332;SDS011;3707;43.618;25.342;2022-07-06T03:28:17;13.00;;;7.80;;
7332;SDS011;3707;43.618;25.342;2022-07-06T03:30:43;9.05;;;7.22;;
7332;SDS011;3707;43.618;25.342;2022-07-06T03:33:10;8.93;;;7.18;;
7332;SDS011;3707;43.618;25.342;2022-07-06T03:35:37;9.02;;;7.50;;
7332;SDS011;3707;43.618;25.342;2022-07-06T03:38:05;9.60;;;7.28;;
7332;SDS011;3707;43.618;25.342;2022-07-06T03:40:32;11.60;;;7.45;;
7332;SDS011;3707;43.618;25.342;2022-07-06T03:43:00;10.05;;;7.53;;
7332;SDS011;3707;43.618;25.342;2022-07-06T03:45:26;8.48;;;7.20;;
7332;SDS011;3707;43.618;25.342;2022-07-06T03:47:53;8.13;;;6.90;;
7332;SDS011;3707;43.618;25.342;2022-07-06T03:50:20;7.13;;;6.43;;
7332;SDS011;3707;43.618;25.342;2022-07-06T03:52:47;7.45;;;6.75;;
7332;SDS011;3707;43.618;25.342;2022-07-06T03:55:15;8.23;;;6.45;;
7332;SDS011;3707;43.618;25.342;2022-07-06T03:57:42;7.65;;;6.95;;
7332;SDS011;3707;43.618;25.342;2022-07-06T04:00:09;10.10;;;6.68;;
7332;SDS011;3707;43.618;25.342;2022-07-06T04:02:36;10.98;;;6.40;;
7332;SDS011;3707;43.618;25.342;2022-07-06T04:05:04;9.43;;;6.75;;
7332;SDS011;3707;43.618;25.342;2022-07-06T04:07:31;8.52;;;6.68;;
7332;SDS011;3707;43.618;25.342;2022-07-06T04:09:58;14.65;;;6.13;;
7332;SDS011;3707;43.618;25.342;2022-07-06T04:12:26;8.60;;;6.45;;
7332;SDS011;3707;43.618;25.342;2022-07-06T04:14:55;6.03;;;5.53;;
7332;SDS011;3707;43.618;25.342;2022-07-06T04:17:22;8.95;;;5.70;;
7332;SDS011;3707;43.618;25.342;2022-07-06T04:20:07;9.15;;;6.10;;
7332;SDS011;3707;43.618;25.342;2022-07-06T04:22:36;6.95;;;6.25;;
7332;SDS011;3707;43.618;25.342;2022-07-06T04:25:04;8.43;;;6.50;;
7332;SDS011;3707;43.618;25.342;2022-07-06T04:27:33;6.80;;;6.20;;
7332;SDS011;3707;43.618;25.342;2022-07-06T04:30:00;6.53;;;5.93;;
7332;SDS011;3707;43.618;25.342;2022-07-06T04:32:27;6.93;;;6.22;;
7332;SDS011;3707;43.618;25.342;2022-07-06T04:34:54;6.88;;;6.20;;
7332;SDS011;3707;43.618;25.342;2022-07-06T04:37:21;8.02;;;6.30;;
7332;SDS011;3707;43.618;25.342;2022-07-06T04:39:47;8.70;;;6.40;;
7332;SDS011;3707;43.618;25.342;2022-07-06T04:42:14;6.93;;;6.25;;
7332;SDS011;3707;43.618;25.342;2022-07-06T04:44:43;9.05;;;5.95;;
7332;SDS011;3707;43.618;25.342;2022-07-06T04:47:10;6.63;;;5.95;;
7332;SDS011;3707;43.618;25.342;2022-07-06T04:49:37;5.57;;;5.07;;
7332;SDS011;3707;43.618;25.342;2022-07-06T04:52:04;6.97;;;5.70;;
7332;SDS011;3707;43.618;25.342;2022-07-06T04:54:31;5.80;;;5.18;;
7332;SDS011;3707;43.618;25.342;2022-07-06T04:56:58;6.65;;;5.82;;
7332;SDS011;3707;43.618;25.342;2022-07-06T04:59:25;6.93;;;5.60;;
7332;SDS011;3707;43.618;25.342;2022-07-06T05:01:54;7.55;;;5.78;;
7332;SDS011;3707;43.618;25.342;2022-07-06T05:04:21;8.38;;;6.13;;
7332;SDS011;3707;43.618;25.342;2022-07-06T05:06:49;6.18;;;5.55;;
7332;SDS011;3707;43.618;25.342;2022-07-06T05:09:16;8.05;;;5.75;;
7332;SDS011;3707;43.618;25.342;2022-07-06T05:11:43;6.05;;;5.38;;
7332;SDS011;3707;43.618;25.342;2022-07-06T05:14:10;7.03;;;5.80;;
7332;SDS011;3707;43.618;25.342;2022-07-06T05:16:37;8.98;;;6.07;;
7332;SDS011;3707;43.618;25.342;2022-07-06T05:19:05;6.15;;;5.57;;
7332;SDS011;3707;43.618;25.342;2022-07-06T05:21:32;7.55;;;5.90;;
7332;SDS011;3707;43.618;25.342;2022-07-06T05:23:59;6.18;;;5.32;;
7332;SDS011;3707;43.618;25.342;2022-07-06T05:26:25;6.38;;;5.78;;
7332;SDS011;3707;43.618;25.342;2022-07-06T05:28:52;7.93;;;7.07;;
7332;SDS011;3707;43.618;25.342;2022-07-06T05:31:19;8.35;;;7.13;;
7332;SDS011;3707;43.618;25.342;2022-07-06T05:33:46;8.90;;;7.07;;
7332;SDS011;3707;43.618;25.342;2022-07-06T05:36:14;14.63;;;6.72;;
7332;SDS011;3707;43.618;25.342;2022-07-06T05:38:41;9.50;;;6.68;;
7332;SDS011;3707;43.618;25.342;2022-07-06T05:41:08;7.13;;;6.00;;
7332;SDS011;3707;43.618;25.342;2022-07-06T05:43:35;8.02;;;6.30;;
7332;SDS011;3707;43.618;25.342;2022-07-06T05:46:02;7.78;;;6.57;;
7332;SDS011;3707;43.618;25.342;2022-07-06T05:48:29;6.78;;;6.13;;
7332;SDS011;3707;43.618;25.342;2022-07-06T05:51:15;7.90;;;6.63;;
7332;SDS011;3707;43.618;25.342;2022-07-06T05:53:41;11.63;;;6.43;;
7332;SDS011;3707;43.618;25.342;2022-07-06T05:56:08;7.15;;;6.50;;
7332;SDS011;3707;43.618;25.342;2022-07-06T05:58:35;6.93;;;6.32;;
7332;SDS011;3707;43.618;25.342;2022-07-06T06:01:02;7.43;;;5.70;;
7332;SDS011;3707;43.618;25.342;2022-07-06T06:03:29;7.03;;;6.30;;
7332;SDS011;3707;43.618;25.342;2022-07-06T06:05:56;7.68;;;5.85;;
7332;SDS011;3707;43.618;25.342;2022-07-06T06:08:24;6.80;;;6.10;;
7332;SDS011;3707;43.618;25.342;2022-07-06T06:10:50;6.57;;;5.93;;
7332;SDS011;3707;43.618;25.342;2022-07-06T06:13:18;6.75;;;5.93;;
7332;SDS011;3707;43.618;25.342;2022-07-06T06:15:45;10.05;;;6.13;;
7332;SDS011;3707;43.618;25.342;2022-07-06T06:18:11;6.07;;;5.47;;
7332;SDS011;3707;43.618;25.342;2022-07-06T06:20:41;7.57;;;6.20;;
7332;SDS011;3707;43.618;25.342;2022-07-06T06:23:08;6.10;;;5.25;;
7332;SDS011;3707;43.618;25.342;2022-07-06T06:25:37;6.35;;;5.53;;
7332;SDS011;3707;43.618;25.342;2022-07-06T06:28:05;5.57;;;4.78;;
7332;SDS011;3707;43.618;25.342;2022-07-06T06:30:34;6.03;;;4.47;;
7332;SDS011;3707;43.618;25.342;2022-07-06T06:33:05;5.10;;;4.35;;
7332;SDS011;3707;43.618;25.342;2022-07-06T06:35:33;4.10;;;3.80;;
7332;SDS011;3707;43.618;25.342;2022-07-06T06:37:59;4.97;;;4.57;;
7332;SDS011;3707;43.618;25.342;2022-07-06T06:40:26;4.82;;;4.35;;
7332;SDS011;3707;43.618;25.342;2022-07-06T06:42:54;4.82;;;4.35;;
7332;SDS011;3707;43.618;25.342;2022-07-06T06:45:21;4.70;;;4.38;;
7332;SDS011;3707;43.618;25.342;2022-07-06T06:47:48;5.60;;;5.10;;
7332;SDS011;3707;43.618;25.342;2022-07-06T06:50:15;6.13;;;5.65;;
7332;SDS011;3707;43.618;25.342;2022-07-06T06:52:42;7.68;;;5.25;;
7332;SDS011;3707;43.618;25.342;2022-07-06T06:55:09;6.72;;;6.10;;
7332;SDS011;3707;43.618;25.342;2022-07-06T06:57:36;7.47;;;6.45;;
7332;SDS011;3707;43.618;25.342;2022-07-06T07:00:05;6.57;;;5.97;;
7332;SDS011;3707;43.618;25.342;2022-07-06T07:02:32;6.03;;;5.43;;
7332;SDS011;3707;43.618;25.342;2022-07-06T07:04:59;8.57;;;6.03;;
7332;SDS011;3707;43.618;25.342;2022-07-06T07:07:26;7.70;;;6.88;;
7332;SDS011;3707;43.618;25.342;2022-07-06T07:09:53;7.60;;;6.65;;
7332;SDS011;3707;43.618;25.342;2022-07-06T07:12:20;13.15;;;7.55;;
7332;SDS011;3707;43.618;25.342;2022-07-06T07:14:47;8.93;;;6.97;;
7332;SDS011;3707;43.618;25.342;2022-07-06T07:17:15;10.68;;;7.70;;
7332;SDS011;3707;43.618;25.342;2022-07-06T07:19:42;7.30;;;6.60;;
7332;SDS011;3707;43.618;25.342;2022-07-06T07:22:09;8.05;;;7.35;;
7332;SDS011;3707;43.618;25.342;2022-07-06T07:24:36;9.70;;;6.28;;
7332;SDS011;3707;43.618;25.342;2022-07-06T07:27:03;13.00;;;8.32;;
7332;SDS011;3707;43.618;25.342;2022-07-06T07:29:30;11.68;;;7.07;;
7332;SDS011;3707;43.618;25.342;2022-07-06T07:31:57;12.60;;;7.93;;
7332;SDS011;3707;43.618;25.342;2022-07-06T07:34:25;9.75;;;8.18;;
7332;SDS011;3707;43.618;25.342;2022-07-06T07:36:52;10.32;;;7.80;;
7332;SDS011;3707;43.618;25.342;2022-07-06T07:39:19;10.98;;;8.15;;
7332;SDS011;3707;43.618;25.342;2022-07-06T07:41:45;11.18;;;8.32;;
7332;SDS011;3707;43.618;25.342;2022-07-06T07:44:15;7.80;;;7.15;;
7332;SDS011;3707;43.618;25.342;2022-07-06T07:46:42;19.42;;;8.02;;
7332;SDS011;3707;43.618;25.342;2022-07-06T07:49:09;10.73;;;7.38;;
7332;SDS011;3707;43.618;25.342;2022-07-06T07:51:37;11.73;;;8.13;;
7332;SDS011;3707;43.618;25.342;2022-07-06T07:54:04;8.98;;;8.05;;
7332;SDS011;3707;43.618;25.342;2022-07-06T07:56:31;9.05;;;8.10;;
7332;SDS011;3707;43.618;25.342;2022-07-06T07:58:58;8.38;;;7.57;;
7332;SDS011;3707;43.618;25.342;2022-07-06T08:01:25;11.13;;;8.27;;
7332;SDS011;3707;43.618;25.342;2022-07-06T08:03:53;7.93;;;6.78;;
7332;SDS011;3707;43.618;25.342;2022-07-06T08:06:20;10.88;;;8.45;;
7332;SDS011;3707;43.618;25.342;2022-07-06T08:08:48;7.93;;;7.13;;
7332;SDS011;3707;43.618;25.342;2022-07-06T08:11:15;9.18;;;7.85;;
7332;SDS011;3707;43.618;25.342;2022-07-06T08:13:41;9.50;;;7.72;;
7332;SDS011;3707;43.618;25.342;2022-07-06T08:16:08;9.02;;;7.03;;
7332;SDS011;3707;43.618;25.342;2022-07-06T08:18:35;9.23;;;6.75;;
7332;SDS011;3707;43.618;25.342;2022-07-06T08:21:03;8.90;;;6.40;;
7332;SDS011;3707;43.618;25.342;2022-07-06T08:23:30;6.13;;;5.00;;
7332;SDS011;3707;43.618;25.342;2022-07-06T08:26:01;6.38;;;5.85;;
7332;SDS011;3707;43.618;25.342;2022-07-06T08:28:28;12.38;;;6.43;;
7332;SDS011;3707;43.618;25.342;2022-07-06T08:30:54;8.73;;;5.65;;
7332;SDS011;3707;43.618;25.342;2022-07-06T08:33:21;6.63;;;6.10;;
7332;SDS011;3707;43.618;25.342;2022-07-06T08:35:48;9.95;;;6.68;;
7332;SDS011;3707;43.618;25.342;2022-07-06T08:38:15;9.02;;;6.85;;
7332;SDS011;3707;43.618;25.342;2022-07-06T08:40:42;11.98;;;6.78;;
7332;SDS011;3707;43.618;25.342;2022-07-06T08:43:14;7.25;;;6.55;;
7332;SDS011;3707;43.618;25.342;2022-07-06T08:45:41;7.57;;;6.55;;
7332;SDS011;3707;43.618;25.342;2022-07-06T08:48:10;7.22;;;6.60;;
7332;SDS011;3707;43.618;25.342;2022-07-06T08:50:37;9.43;;;7.70;;
7332;SDS011;3707;43.618;25.342;2022-07-06T08:53:05;10.07;;;7.60;;
7332;SDS011;3707;43.618;25.342;2022-07-06T08:55:32;8.02;;;6.93;;
7332;SDS011;3707;43.618;25.342;2022-07-06T08:57:59;9.02;;;8.13;;
7332;SDS011;3707;43.618;25.342;2022-07-06T09:00:27;10.07;;;7.65;;
7332;SDS011;3707;43.618;25.342;2022-07-06T09:02:54;8.63;;;7.78;;
7332;SDS011;3707;43.618;25.342;2022-07-06T09:05:23;7.57;;;6.78;;
7332;SDS011;3707;43.618;25.342;2022-07-06T09:07:51;8.70;;;7.78;;
7332;SDS011;3707;43.618;25.342;2022-07-06T09:10:19;8.27;;;7.47;;
7332;SDS011;3707;43.618;25.342;2022-07-06T09:12:48;7.10;;;6.40;;
7332;SDS011;3707;43.618;25.342;2022-07-06T09:15:15;8.10;;;7.05;;
7332;SDS011;3707;43.618;25.342;2022-07-06T09:17:44;7.72;;;7.00;;
7332;SDS011;3707;43.618;25.342;2022-07-06T09:20:11;8.90;;;7.78;;
7332;SDS011;3707;43.618;25.342;2022-07-06T09:22:39;8.88;;;6.97;;
7332;SDS011;3707;43.618;25.342;2022-07-06T09:25:07;8.00;;;7.20;;
7332;SDS011;3707;43.618;25.342;2022-07-06T09:27:38;8.60;;;7.35;;
7332;SDS011;3707;43.618;25.342;2022-07-06T09:30:06;7.53;;;6.85;;
7332;SDS011;3707;43.618;25.342;2022-07-06T09:32:38;7.85;;;6.43;;
7332;SDS011;3707;43.618;25.342;2022-07-06T09:35:07;7.22;;;6.57;;
7332;SDS011;3707;43.618;25.342;2022-07-06T09:37:34;7.82;;;7.03;;
7332;SDS011;3707;43.618;25.342;2022-07-06T09:40:02;8.00;;;6.18;;
7332;SDS011;3707;43.618;25.342;2022-07-06T09:42:42;6.13;;;5.63;;
7332;SDS011;3707;43.618;25.342;2022-07-06T09:45:09;6.00;;;5.50;;
7332;SDS011;3707;43.618;25.342;2022-07-06T09:47:36;6.88;;;6.20;;
7332;SDS011;3707;43.618;25.342;2022-07-06T09:50:05;5.70;;;5.28;;
7332;SDS011;3707;43.618;25.342;2022-07-06T09:52:34;6.35;;;5.47;;
7332;SDS011;3707;43.618;25.342;2022-07-06T09:55:05;7.18;;;5.68;;
7332;SDS011;3707;43.618;25.342;2022-07-06T09:57:51;5.43;;;4.93;;
7332;SDS011;3707;43.618;25.342;2022-07-06T10:00:20;6.85;;;4.70;;
7332;SDS011;3707;43.618;25.342;2022-07-06T10:02:47;5.68;;;5.13;;
7332;SDS011;3707;43.618;25.342;2022-07-06T10:05:15;5.97;;;4.78;;
7332;SDS011;3707;43.618;25.342;2022-07-06T10:07:44;8.50;;;6.05;;
7332;SDS011;3707;43.618;25.342;2022-07-06T10:10:12;6.90;;;5.45;;
7332;SDS011;3707;43.618;25.342;2022-07-06T10:12:42;6.18;;;5.60;;
7332;SDS011;3707;43.618;25.342;2022-07-06T10:15:11;6.10;;;5.57;;
7332;SDS011;3707;43.618;25.342;2022-07-06T10:17:37;6.05;;;5.55;;
7332;SDS011;3707;43.618;25.342;2022-07-06T10:20:06;6.43;;;5.43;;
7332;SDS011;3707;43.618;25.342;2022-07-06T10:22:34;6.65;;;5.57;;
7332;SDS011;3707;43.618;25.342;2022-07-06T10:25:03;8.45;;;5.60;;
7332;SDS011;3707;43.618;25.342;2022-07-06T10:27:31;9.15;;;5.80;;
7332;SDS011;3707;43.618;25.342;2022-07-06T10:29:59;6.38;;;5.78;;
7332;SDS011;3707;43.618;25.342;2022-07-06T10:32:26;11.35;;;6.40;;
7332;SDS011;3707;43.618;25.342;2022-07-06T10:34:54;7.32;;;6.53;;
7332;SDS011;3707;43.618;25.342;2022-07-06T10:37:22;7.90;;;5.65;;
7332;SDS011;3707;43.618;25.342;2022-07-06T10:39:50;6.57;;;5.35;;
7332;SDS011;3707;43.618;25.342;2022-07-06T10:42:40;6.40;;;5.75;;
7332;SDS011;3707;43.618;25.342;2022-07-06T10:45:08;7.18;;;5.68;;
7332;SDS011;3707;43.618;25.342;2022-07-06T10:47:39;6.93;;;5.97;;
7332;SDS011;3707;43.618;25.342;2022-07-06T10:50:06;9.10;;;6.05;;
7332;SDS011;3707;43.618;25.342;2022-07-06T10:52:49;8.23;;;5.80;;
7332;SDS011;3707;43.618;25.342;2022-07-06T10:58:05;7.97;;;7.03;;
7332;SDS011;3707;43.618;25.342;2022-07-06T11:00:48;7.35;;;6.05;;
7332;SDS011;3707;43.618;25.342;2022-07-06T11:03:31;7.50;;;6.50;;
7332;SDS011;3707;43.618;25.342;2022-07-06T11:06:05;7.07;;;6.47;;
7332;SDS011;3707;43.618;25.342;2022-07-06T11:08:43;7.78;;;6.88;;
7332;SDS011;3707;43.618;25.342;2022-07-06T11:11:11;7.32;;;6.72;;
7332;SDS011;3707;43.618;25.342;2022-07-06T11:13:43;8.52;;;6.88;;
7332;SDS011;3707;43.618;25.342;2022-07-06T11:16:14;7.97;;;6.97;;
7332;SDS011;3707;43.618;25.342;2022-07-06T11:18:42;7.82;;;6.53;;
7332;SDS011;3707;43.618;25.342;2022-07-06T11:21:17;9.65;;;7.22;;
7332;SDS011;3707;43.618;25.342;2022-07-06T11:23:45;8.18;;;6.70;;
7332;SDS011;3707;43.618;25.342;2022-07-06T11:26:14;8.98;;;6.93;;
7332;SDS011;3707;43.618;25.342;2022-07-06T11:28:42;7.22;;;6.47;;
7332;SDS011;3707;43.618;25.342;2022-07-06T11:31:12;7.70;;;6.90;;
7332;SDS011;3707;43.618;25.342;2022-07-06T11:33:39;6.93;;;6.30;;
7332;SDS011;3707;43.618;25.342;2022-07-06T11:36:12;8.25;;;7.45;;
7332;SDS011;3707;43.618;25.342;2022-07-06T11:38:40;8.00;;;6.78;;
7332;SDS011;3707;43.618;25.342;2022-07-06T11:41:08;10.13;;;7.45;;
7332;SDS011;3707;43.618;25.342;2022-07-06T11:43:36;8.50;;;7.75;;
7332;SDS011;3707;43.618;25.342;2022-07-06T11:46:18;8.45;;;7.65;;
7332;SDS011;3707;43.618;25.342;2022-07-06T11:48:46;9.27;;;8.27;;
7332;SDS011;3707;43.618;25.342;2022-07-06T11:51:13;12.02;;;7.88;;
7332;SDS011;3707;43.618;25.342;2022-07-06T11:53:42;9.45;;;8.35;;
7332;SDS011;3707;43.618;25.342;2022-07-06T11:56:10;9.55;;;8.30;;
7332;SDS011;3707;43.618;25.342;2022-07-06T11:58:38;10.25;;;8.77;;
7332;SDS011;3707;43.618;25.342;2022-07-06T12:01:08;10.73;;;8.43;;
7332;SDS011;3707;43.618;25.342;2022-07-06T12:03:37;10.57;;;9.13;;
7332;SDS011;3707;43.618;25.342;2022-07-06T12:06:16;10.55;;;9.07;;
7332;SDS011;3707;43.618;25.342;2022-07-06T12:08:45;10.13;;;9.00;;
7332;SDS011;3707;43.618;25.342;2022-07-06T12:11:19;11.38;;;9.25;;
7332;SDS011;3707;43.618;25.342;2022-07-06T12:13:48;10.35;;;9.02;;
7332;SDS011;3707;43.618;25.342;2022-07-06T12:16:15;10.27;;;9.15;;
7332;SDS011;3707;43.618;25.342;2022-07-06T12:18:45;10.00;;;9.07;;
7332;SDS011;3707;43.618;25.342;2022-07-06T12:21:13;10.45;;;9.45;;
7332;SDS011;3707;43.618;25.342;2022-07-06T12:23:43;12.60;;;9.48;;
7332;SDS011;3707;43.618;25.342;2022-07-06T12:26:11;11.13;;;9.98;;
7332;SDS011;3707;43.618;25.342;2022-07-06T12:28:40;10.57;;;9.50;;
7332;SDS011;3707;43.618;25.342;2022-07-06T12:31:07;13.75;;;10.07;;
7332;SDS011;3707;43.618;25.342;2022-07-06T12:33:34;12.15;;;10.30;;
7332;SDS011;3707;43.618;25.342;2022-07-06T12:36:13;14.23;;;10.65;;
7332;SDS011;3707;43.618;25.342;2022-07-06T12:38:44;12.10;;;10.90;;
7332;SDS011;3707;43.618;25.342;2022-07-06T12:41:30;12.25;;;11.00;;
7332;SDS011;3707;43.618;25.342;2022-07-06T12:44:02;12.05;;;10.85;;
7332;SDS011;3707;43.618;25.342;2022-07-06T12:46:30;11.25;;;10.15;;
7332;SDS011;3707;43.618;25.342;2022-07-06T12:48:59;13.65;;;10.93;;
7332;SDS011;3707;43.618;25.342;2022-07-06T12:51:28;13.00;;;11.35;;
7332;SDS011;3707;43.618;25.342;2022-07-06T12:54:14;13.07;;;11.70;;
7332;SDS011;3707;43.618;25.342;2022-07-06T12:59:41;12.02;;;10.82;;
7332;SDS011;3707;43.618;25.342;2022-07-06T13:02:09;11.95;;;10.77;;
7332;SDS011;3707;43.618;25.342;2022-07-06T13:04:49;16.27;;;10.50;;
7332;SDS011;3707;43.618;25.342;2022-07-06T13:07:22;12.90;;;10.07;;
7332;SDS011;3707;43.618;25.342;2022-07-06T13:09:50;12.40;;;9.98;;
7332;SDS011;3707;43.618;25.342;2022-07-06T13:12:17;11.13;;;10.02;;
7332;SDS011;3707;43.618;25.342;2022-07-06T13:14:44;11.55;;;10.35;;
7332;SDS011;3707;43.618;25.342;2022-07-06T13:17:11;14.63;;;9.93;;
7332;SDS011;3707;43.618;25.342;2022-07-06T13:19:38;11.48;;;9.70;;
7332;SDS011;3707;43.618;25.342;2022-07-06T13:22:05;13.88;;;10.25;;
7332;SDS011;3707;43.618;25.342;2022-07-06T13:24:33;10.80;;;9.70;;
7332;SDS011;3707;43.618;25.342;2022-07-06T13:27:00;16.67;;;9.70;;
7332;SDS011;3707;43.618;25.342;2022-07-06T13:29:27;11.60;;;9.25;;
7332;SDS011;3707;43.618;25.342;2022-07-06T13:31:54;12.10;;;10.38;;
7332;SDS011;3707;43.618;25.342;2022-07-06T13:34:21;10.90;;;9.00;;
7332;SDS011;3707;43.618;25.342;2022-07-06T13:36:48;10.88;;;9.32;;
7332;SDS011;3707;43.618;25.342;2022-07-06T13:39:15;10.45;;;9.45;;
7332;SDS011;3707;43.618;25.342;2022-07-06T13:41:44;10.98;;;9.90;;
7332;SDS011;3707;43.618;25.342;2022-07-06T13:44:11;17.15;;;9.85;;
7332;SDS011;3707;43.618;25.342;2022-07-06T13:46:38;10.80;;;9.80;;
7332;SDS011;3707;43.618;25.342;2022-07-06T13:49:05;10.75;;;9.30;;
7332;SDS011;3707;43.618;25.342;2022-07-06T13:51:32;12.48;;;9.30;;
7332;SDS011;3707;43.618;25.342;2022-07-06T13:53:59;10.55;;;9.30;;
7332;SDS011;3707;43.618;25.342;2022-07-06T13:56:26;11.63;;;9.35;;
7332;SDS011;3707;43.618;25.342;2022-07-06T13:58:55;10.38;;;9.38;;
7332;SDS011;3707;43.618;25.342;2022-07-06T14:01:22;10.73;;;9.73;;
7332;SDS011;3707;43.618;25.342;2022-07-06T14:03:49;10.23;;;8.93;;
7332;SDS011;3707;43.618;25.342;2022-07-06T14:06:16;11.68;;;9.43;;
7332;SDS011;3707;43.618;25.342;2022-07-06T14:08:44;11.63;;;9.35;;
7332;SDS011;3707;43.618;25.342;2022-07-06T14:11:12;11.32;;;9.02;;
7332;SDS011;3707;43.618;25.342;2022-07-06T14:13:39;9.50;;;8.60;;
7332;SDS011;3707;43.618;25.342;2022-07-06T14:16:08;9.73;;;8.75;;
7332;SDS011;3707;43.618;25.342;2022-07-06T14:18:35;11.75;;;8.52;;
7332;SDS011;3707;43.618;25.342;2022-07-06T14:21:02;9.65;;;8.73;;
7332;SDS011;3707;43.618;25.342;2022-07-06T14:23:29;16.63;;;13.38;;
7332;SDS011;3707;43.618;25.342;2022-07-06T14:25:57;10.48;;;8.32;;
7332;SDS011;3707;43.618;25.342;2022-07-06T14:28:24;9.70;;;8.90;;
7332;SDS011;3707;43.618;25.342;2022-07-06T14:30:51;9.77;;;8.25;;
7332;SDS011;3707;43.618;25.342;2022-07-06T14:33:19;9.77;;;8.85;;
7332;SDS011;3707;43.618;25.342;2022-07-06T14:35:47;10.82;;;9.25;;
7332;SDS011;3707;43.618;25.342;2022-07-06T14:38:16;10.52;;;9.45;;
7332;SDS011;3707;43.618;25.342;2022-07-06T14:40:43;11.18;;;9.18;;
7332;SDS011;3707;43.618;25.342;2022-07-06T14:43:13;9.63;;;8.63;;
7332;SDS011;3707;43.618;25.342;2022-07-06T14:45:39;17.95;;;9.73;;
7332;SDS011;3707;43.618;25.342;2022-07-06T14:48:07;10.93;;;8.13;;
7332;SDS011;3707;43.618;25.342;2022-07-06T14:50:35;9.32;;;8.50;;
7332;SDS011;3707;43.618;25.342;2022-07-06T14:53:02;9.68;;;8.68;;
7332;SDS011;3707;43.618;25.342;2022-07-06T14:55:29;11.20;;;7.45;;
7332;SDS011;3707;43.618;25.342;2022-07-06T14:57:56;13.02;;;7.65;;
7332;SDS011;3707;43.618;25.342;2022-07-06T15:00:23;7.53;;;6.82;;
7332;SDS011;3707;43.618;25.342;2022-07-06T15:02:50;8.18;;;7.43;;
7332;SDS011;3707;43.618;25.342;2022-07-06T15:05:17;8.50;;;6.85;;
7332;SDS011;3707;43.618;25.342;2022-07-06T15:07:45;7.13;;;6.45;;